sensor_id;sensor_type;location;lat;lon;timestamp;P1;durP1;ratioP1;P2;durP2;ratioP2
58661;SDS011;44432;49.786;22.760;2022-11-21T00:01:00;40.70;;;18.00;;
58661;SDS011;44432;49.786;22.760;2022-11-21T00:03:40;48.90;;;18.00;;
58661;SDS011;44432;49.786;22.760;2022-11-21T00:06:11;48.30;;;19.10;;
58661;SDS011;44432;49.786;22.760;2022-11-21T00:08:42;58.90;;;19.80;;
58661;SDS011;44432;49.786;22.760;2022-11-21T00:11:13;46.90;;;17.10;;
58661;SDS011;44432;49.786;22.760;2022-11-21T00:13:44;47.30;;;17.50;;
58661;SDS011;44432;49.786;22.760;2022-11-21T00:16:15;51.10;;;18.00;;
58661;SDS011;44432;49.786;22.760;2022-11-21T00:18:46;56.00;;;18.60;;
58661;SDS011;44432;49.786;22.760;2022-11-21T00:21:17;45.60;;;17.60;;
58661;SDS011;44432;49.786;22.760;2022-11-21T00:23:48;50.90;;;14.80;;
58661;SDS011;44432;49.786;22.760;2022-11-21T00:26:20;49.00;;;17.30;;
58661;SDS011;44432;49.786;22.760;2022-11-21T00:28:50;32.10;;;16.10;;
58661;SDS011;44432;49.786;22.760;2022-11-21T00:31:21;53.30;;;18.50;;
58661;SDS011;44432;49.786;22.760;2022-11-21T00:33:53;35.70;;;17.00;;
58661;SDS011;44432;49.786;22.760;2022-11-21T00:36:23;39.90;;;18.20;;
58661;SDS011;44432;49.786;22.760;2022-11-21T00:38:54;35.80;;;16.20;;
58661;SDS011;44432;49.786;22.760;2022-11-21T00:41:24;37.00;;;15.10;;
58661;SDS011;44432;49.786;22.760;2022-11-21T00:43:55;68.30;;;19.30;;
58661;SDS011;44432;49.786;22.760;2022-11-21T00:46:26;36.20;;;15.10;;
58661;SDS011;44432;49.786;22.760;2022-11-21T00:48:56;32.20;;;13.80;;
58661;SDS011;44432;49.786;22.760;2022-11-21T00:51:27;35.30;;;15.20;;
58661;SDS011;44432;49.786;22.760;2022-11-21T00:53:58;35.90;;;13.60;;
58661;SDS011;44432;49.786;22.760;2022-11-21T00:56:28;29.10;;;14.10;;
58661;SDS011;44432;49.786;22.760;2022-11-21T00:58:59;29.80;;;12.90;;
58661;SDS011;44432;49.786;22.760;2022-11-21T01:01:30;32.10;;;14.60;;
58661;SDS011;44432;49.786;22.760;2022-11-21T01:04:00;33.40;;;15.10;;
58661;SDS011;44432;49.786;22.760;2022-11-21T01:06:31;34.30;;;15.70;;
58661;SDS011;44432;49.786;22.760;2022-11-21T01:09:04;35.20;;;15.00;;
58661;SDS011;44432;49.786;22.760;2022-11-21T01:11:35;40.10;;;16.40;;
58661;SDS011;44432;49.786;22.760;2022-11-21T01:14:05;31.70;;;15.10;;
58661;SDS011;44432;49.786;22.760;2022-11-21T01:16:36;35.40;;;15.10;;
58661;SDS011;44432;49.786;22.760;2022-11-21T01:19:07;32.10;;;14.90;;
58661;SDS011;44432;49.786;22.760;2022-11-21T01:21:37;33.00;;;13.50;;
58661;SDS011;44432;49.786;22.760;2022-11-21T01:24:08;36.10;;;15.80;;
58661;SDS011;44432;49.786;22.760;2022-11-21T01:26:40;31.30;;;14.30;;
58661;SDS011;44432;49.786;22.760;2022-11-21T01:29:10;39.00;;;17.50;;
58661;SDS011;44432;49.786;22.760;2022-11-21T01:31:41;33.90;;;15.50;;
58661;SDS011;44432;49.786;22.760;2022-11-21T01:34:12;34.80;;;14.70;;
58661;SDS011;44432;49.786;22.760;2022-11-21T01:36:43;31.00;;;15.80;;
58661;SDS011;44432;49.786;22.760;2022-11-21T01:39:13;34.10;;;15.60;;
58661;SDS011;44432;49.786;22.760;2022-11-21T01:41:44;44.70;;;19.10;;
58661;SDS011;44432;49.786;22.760;2022-11-21T01:44:17;36.40;;;17.40;;
58661;SDS011;44432;49.786;22.760;2022-11-21T01:46:48;52.40;;;18.60;;
58661;SDS011;44432;49.786;22.760;2022-11-21T01:49:20;35.70;;;16.40;;
58661;SDS011;44432;49.786;22.760;2022-11-21T01:51:54;31.40;;;15.50;;
58661;SDS011;44432;49.786;22.760;2022-11-21T01:54:28;36.30;;;15.20;;
58661;SDS011;44432;49.786;22.760;2022-11-21T01:57:04;36.70;;;15.50;;
58661;SDS011;44432;49.786;22.760;2022-11-21T01:59:38;37.80;;;16.80;;
58661;SDS011;44432;49.786;22.760;2022-11-21T02:02:12;37.60;;;15.80;;
58661;SDS011;44432;49.786;22.760;2022-11-21T02:04:45;34.40;;;15.30;;
58661;SDS011;44432;49.786;22.760;2022-11-21T02:07:18;35.30;;;15.90;;
58661;SDS011;44432;49.786;22.760;2022-11-21T02:09:51;70.70;;;17.50;;
58661;SDS011;44432;49.786;22.760;2022-11-21T02:12:28;37.30;;;14.30;;
58661;SDS011;44432;49.786;22.760;2022-11-21T02:15:04;26.80;;;13.60;;
58661;SDS011;44432;49.786;22.760;2022-11-21T02:17:36;37.90;;;13.80;;
58661;SDS011;44432;49.786;22.760;2022-11-21T02:20:08;35.70;;;13.20;;
58661;SDS011;44432;49.786;22.760;2022-11-21T02:22:41;38.70;;;15.70;;
58661;SDS011;44432;49.786;22.760;2022-11-21T02:25:20;40.00;;;15.60;;
58661;SDS011;44432;49.786;22.760;2022-11-21T02:27:52;44.20;;;19.10;;
58661;SDS011;44432;49.786;22.760;2022-11-21T02:30:26;32.70;;;13.10;;
58661;SDS011;44432;49.786;22.760;2022-11-21T02:32:58;31.10;;;15.60;;
58661;SDS011;44432;49.786;22.760;2022-11-21T02:35:29;32.70;;;13.90;;
58661;SDS011;44432;49.786;22.760;2022-11-21T02:38:01;32.90;;;13.30;;
58661;SDS011;44432;49.786;22.760;2022-11-21T02:40:36;30.60;;;14.80;;
58661;SDS011;44432;49.786;22.760;2022-11-21T02:43:11;28.30;;;13.90;;
58661;SDS011;44432;49.786;22.760;2022-11-21T02:45:45;31.60;;;14.50;;
58661;SDS011;44432;49.786;22.760;2022-11-21T02:48:16;30.80;;;13.10;;
58661;SDS011;44432;49.786;22.760;2022-11-21T02:50:46;33.10;;;11.50;;
58661;SDS011;44432;49.786;22.760;2022-11-21T02:53:17;31.40;;;12.40;;
58661;SDS011;44432;49.786;22.760;2022-11-21T02:55:48;27.20;;;11.60;;
58661;SDS011;44432;49.786;22.760;2022-11-21T02:58:18;41.80;;;12.30;;
58661;SDS011;44432;49.786;22.760;2022-11-21T03:00:49;33.60;;;13.30;;
58661;SDS011;44432;49.786;22.760;2022-11-21T03:03:21;25.90;;;11.60;;
58661;SDS011;44432;49.786;22.760;2022-11-21T03:05:52;28.50;;;13.10;;
58661;SDS011;44432;49.786;22.760;2022-11-21T03:08:23;26.30;;;11.60;;
58661;SDS011;44432;49.786;22.760;2022-11-21T03:10:54;31.30;;;11.50;;
58661;SDS011;44432;49.786;22.760;2022-11-21T03:13:25;35.20;;;12.50;;
58661;SDS011;44432;49.786;22.760;2022-11-21T03:15:55;31.60;;;13.50;;
58661;SDS011;44432;49.786;22.760;2022-11-21T03:18:26;28.70;;;14.60;;
58661;SDS011;44432;49.786;22.760;2022-11-21T03:20:57;26.00;;;13.50;;
58661;SDS011;44432;49.786;22.760;2022-11-21T03:23:28;27.10;;;15.40;;
58661;SDS011;44432;49.786;22.760;2022-11-21T03:25:58;30.40;;;15.40;;
58661;SDS011;44432;49.786;22.760;2022-11-21T03:28:29;44.60;;;22.10;;
58661;SDS011;44432;49.786;22.760;2022-11-21T03:31:00;34.90;;;17.50;;
58661;SDS011;44432;49.786;22.760;2022-11-21T03:33:30;30.50;;;15.90;;
58661;SDS011;44432;49.786;22.760;2022-11-21T03:36:01;75.00;;;30.50;;
58661;SDS011;44432;49.786;22.760;2022-11-21T03:38:32;52.70;;;22.90;;
58661;SDS011;44432;49.786;22.760;2022-11-21T03:41:05;47.20;;;21.50;;
58661;SDS011;44432;49.786;22.760;2022-11-21T03:43:56;45.20;;;22.70;;
58661;SDS011;44432;49.786;22.760;2022-11-21T03:46:27;40.90;;;18.90;;
58661;SDS011;44432;49.786;22.760;2022-11-21T03:48:58;40.40;;;17.60;;
58661;SDS011;44432;49.786;22.760;2022-11-21T03:51:29;30.60;;;14.20;;
58661;SDS011;44432;49.786;22.760;2022-11-21T03:54:00;32.10;;;14.40;;
58661;SDS011;44432;49.786;22.760;2022-11-21T03:56:31;38.30;;;16.50;;
58661;SDS011;44432;49.786;22.760;2022-11-21T03:59:02;31.30;;;16.00;;
58661;SDS011;44432;49.786;22.760;2022-11-21T04:01:33;37.50;;;17.40;;
58661;SDS011;44432;49.786;22.760;2022-11-21T04:04:03;32.10;;;14.80;;
58661;SDS011;44432;49.786;22.760;2022-11-21T04:06:34;32.00;;;14.60;;
58661;SDS011;44432;49.786;22.760;2022-11-21T04:09:05;37.70;;;15.10;;
58661;SDS011;44432;49.786;22.760;2022-11-21T04:11:35;34.70;;;14.40;;
58661;SDS011;44432;49.786;22.760;2022-11-21T04:14:07;32.10;;;14.00;;
58661;SDS011;44432;49.786;22.760;2022-11-21T04:16:37;38.60;;;17.30;;
58661;SDS011;44432;49.786;22.760;2022-11-21T04:19:08;36.50;;;15.50;;
58661;SDS011;44432;49.786;22.760;2022-11-21T04:21:38;41.00;;;18.40;;
58661;SDS011;44432;49.786;22.760;2022-11-21T04:24:09;36.10;;;15.10;;
58661;SDS011;44432;49.786;22.760;2022-11-21T04:26:40;30.00;;;14.10;;
58661;SDS011;44432;49.786;22.760;2022-11-21T04:29:10;34.00;;;14.10;;
58661;SDS011;44432;49.786;22.760;2022-11-21T04:31:41;31.00;;;14.30;;
58661;SDS011;44432;49.786;22.760;2022-11-21T04:34:11;32.50;;;16.00;;
58661;SDS011;44432;49.786;22.760;2022-11-21T04:36:42;30.90;;;13.80;;
58661;SDS011;44432;49.786;22.760;2022-11-21T04:39:13;24.90;;;12.90;;
58661;SDS011;44432;49.786;22.760;2022-11-21T04:41:43;25.40;;;14.50;;
58661;SDS011;44432;49.786;22.760;2022-11-21T04:44:14;23.80;;;12.80;;
58661;SDS011;44432;49.786;22.760;2022-11-21T04:46:44;18.80;;;10.50;;
58661;SDS011;44432;49.786;22.760;2022-11-21T04:49:15;26.00;;;9.20;;
58661;SDS011;44432;49.786;22.760;2022-11-21T04:51:46;15.80;;;8.60;;
58661;SDS011;44432;49.786;22.760;2022-11-21T04:54:16;18.20;;;8.00;;
58661;SDS011;44432;49.786;22.760;2022-11-21T04:56:47;25.40;;;8.60;;
58661;SDS011;44432;49.786;22.760;2022-11-21T04:59:17;40.30;;;15.90;;
58661;SDS011;44432;49.786;22.760;2022-11-21T05:01:48;22.40;;;9.20;;
58661;SDS011;44432;49.786;22.760;2022-11-21T05:04:19;17.50;;;7.80;;
58661;SDS011;44432;49.786;22.760;2022-11-21T05:06:49;23.90;;;7.90;;
58661;SDS011;44432;49.786;22.760;2022-11-21T05:09:20;17.20;;;6.60;;
58661;SDS011;44432;49.786;22.760;2022-11-21T05:11:50;19.30;;;11.60;;
58661;SDS011;44432;49.786;22.760;2022-11-21T05:14:38;26.70;;;12.80;;
58661;SDS011;44432;49.786;22.760;2022-11-21T05:17:09;21.80;;;11.50;;
58661;SDS011;44432;49.786;22.760;2022-11-21T05:19:40;13.80;;;7.60;;
58661;SDS011;44432;49.786;22.760;2022-11-21T05:22:11;20.50;;;7.80;;
58661;SDS011;44432;49.786;22.760;2022-11-21T05:24:41;13.60;;;7.90;;
58661;SDS011;44432;49.786;22.760;2022-11-21T05:27:12;15.70;;;8.30;;
58661;SDS011;44432;49.786;22.760;2022-11-21T05:29:42;14.80;;;7.70;;
58661;SDS011;44432;49.786;22.760;2022-11-21T05:32:13;22.30;;;7.70;;
58661;SDS011;44432;49.786;22.760;2022-11-21T05:34:43;15.00;;;8.10;;
58661;SDS011;44432;49.786;22.760;2022-11-21T05:37:14;12.70;;;8.20;;
58661;SDS011;44432;49.786;22.760;2022-11-21T05:39:45;16.00;;;9.40;;
58661;SDS011;44432;49.786;22.760;2022-11-21T05:42:16;15.40;;;8.60;;
58661;SDS011;44432;49.786;22.760;2022-11-21T05:45:08;14.70;;;8.90;;
58661;SDS011;44432;49.786;22.760;2022-11-21T05:47:41;14.10;;;6.90;;
58661;SDS011;44432;49.786;22.760;2022-11-21T05:50:11;13.80;;;7.80;;
58661;SDS011;44432;49.786;22.760;2022-11-21T05:52:42;19.00;;;12.30;;
58661;SDS011;44432;49.786;22.760;2022-11-21T05:55:13;12.40;;;6.70;;
58661;SDS011;44432;49.786;22.760;2022-11-21T05:57:43;11.00;;;5.70;;
58661;SDS011;44432;49.786;22.760;2022-11-21T06:00:15;13.40;;;7.00;;
58661;SDS011;44432;49.786;22.760;2022-11-21T06:02:46;17.40;;;7.10;;
58661;SDS011;44432;49.786;22.760;2022-11-21T06:05:35;18.40;;;10.20;;
58661;SDS011;44432;49.786;22.760;2022-11-21T06:08:05;14.90;;;8.00;;
58661;SDS011;44432;49.786;22.760;2022-11-21T06:10:36;11.90;;;6.80;;
58661;SDS011;44432;49.786;22.760;2022-11-21T06:13:07;13.10;;;6.30;;
58661;SDS011;44432;49.786;22.760;2022-11-21T06:15:49;12.60;;;6.70;;
58661;SDS011;44432;49.786;22.760;2022-11-21T06:18:23;17.60;;;8.40;;
58661;SDS011;44432;49.786;22.760;2022-11-21T06:20:59;15.60;;;7.50;;
58661;SDS011;44432;49.786;22.760;2022-11-21T06:23:30;15.60;;;9.50;;
58661;SDS011;44432;49.786;22.760;2022-11-21T06:26:04;60.00;;;35.00;;
58661;SDS011;44432;49.786;22.760;2022-11-21T06:28:36;30.10;;;18.90;;
58661;SDS011;44432;49.786;22.760;2022-11-21T06:31:08;20.40;;;11.10;;
58661;SDS011;44432;49.786;22.760;2022-11-21T06:33:41;19.10;;;9.90;;
58661;SDS011;44432;49.786;22.760;2022-11-21T06:36:14;17.70;;;8.90;;
58661;SDS011;44432;49.786;22.760;2022-11-21T06:41:15;17.70;;;9.20;;
58661;SDS011;44432;49.786;22.760;2022-11-21T06:43:47;16.80;;;9.80;;
58661;SDS011;44432;49.786;22.760;2022-11-21T06:46:18;22.10;;;11.10;;
58661;SDS011;44432;49.786;22.760;2022-11-21T06:48:48;20.30;;;11.00;;
58661;SDS011;44432;49.786;22.760;2022-11-21T06:51:20;22.00;;;12.00;;
58661;SDS011;44432;49.786;22.760;2022-11-21T06:53:53;21.50;;;11.30;;
58661;SDS011;44432;49.786;22.760;2022-11-21T06:56:25;23.40;;;12.20;;
58661;SDS011;44432;49.786;22.760;2022-11-21T06:58:57;21.20;;;12.00;;
58661;SDS011;44432;49.786;22.760;2022-11-21T07:01:28;18.50;;;10.40;;
58661;SDS011;44432;49.786;22.760;2022-11-21T07:03:59;34.00;;;17.70;;
58661;SDS011;44432;49.786;22.760;2022-11-21T07:06:30;27.30;;;14.30;;
58661;SDS011;44432;49.786;22.760;2022-11-21T07:09:02;31.90;;;16.40;;
58661;SDS011;44432;49.786;22.760;2022-11-21T07:11:33;31.90;;;19.30;;
58661;SDS011;44432;49.786;22.760;2022-11-21T07:14:04;37.80;;;17.70;;
58661;SDS011;44432;49.786;22.760;2022-11-21T07:16:35;32.00;;;17.60;;
58661;SDS011;44432;49.786;22.760;2022-11-21T07:19:05;23.60;;;13.80;;
58661;SDS011;44432;49.786;22.760;2022-11-21T07:21:36;25.90;;;13.30;;
58661;SDS011;44432;49.786;22.760;2022-11-21T07:24:06;19.30;;;11.00;;
58661;SDS011;44432;49.786;22.760;2022-11-21T07:26:37;19.40;;;9.60;;
58661;SDS011;44432;49.786;22.760;2022-11-21T07:29:08;22.10;;;12.50;;
58661;SDS011;44432;49.786;22.760;2022-11-21T07:31:38;25.40;;;13.10;;
58661;SDS011;44432;49.786;22.760;2022-11-21T07:34:09;31.20;;;16.60;;
58661;SDS011;44432;49.786;22.760;2022-11-21T07:36:40;17.90;;;10.60;;
58661;SDS011;44432;49.786;22.760;2022-11-21T07:39:10;15.70;;;8.00;;
58661;SDS011;44432;49.786;22.760;2022-11-21T07:41:41;14.60;;;7.80;;
58661;SDS011;44432;49.786;22.760;2022-11-21T07:44:11;12.90;;;8.10;;
58661;SDS011;44432;49.786;22.760;2022-11-21T07:46:42;16.70;;;9.30;;
58661;SDS011;44432;49.786;22.760;2022-11-21T07:49:13;17.70;;;9.60;;
58661;SDS011;44432;49.786;22.760;2022-11-21T07:51:43;22.20;;;10.70;;
58661;SDS011;44432;49.786;22.760;2022-11-21T07:54:14;16.30;;;9.60;;
58661;SDS011;44432;49.786;22.760;2022-11-21T07:56:44;19.00;;;10.00;;
58661;SDS011;44432;49.786;22.760;2022-11-21T07:59:15;22.90;;;10.80;;
58661;SDS011;44432;49.786;22.760;2022-11-21T08:01:46;18.90;;;9.40;;
58661;SDS011;44432;49.786;22.760;2022-11-21T08:04:18;19.20;;;10.70;;
58661;SDS011;44432;49.786;22.760;2022-11-21T08:06:49;14.90;;;7.60;;
58661;SDS011;44432;49.786;22.760;2022-11-21T08:09:19;20.40;;;10.70;;
58661;SDS011;44432;49.786;22.760;2022-11-21T08:11:50;26.90;;;14.00;;
58661;SDS011;44432;49.786;22.760;2022-11-21T08:14:21;15.80;;;8.60;;
58661;SDS011;44432;49.786;22.760;2022-11-21T08:16:51;21.10;;;9.60;;
58661;SDS011;44432;49.786;22.760;2022-11-21T08:19:22;16.10;;;10.60;;
58661;SDS011;44432;49.786;22.760;2022-11-21T08:21:53;16.60;;;9.40;;
58661;SDS011;44432;49.786;22.760;2022-11-21T08:24:23;17.90;;;9.60;;
58661;SDS011;44432;49.786;22.760;2022-11-21T08:26:54;22.20;;;13.40;;
58661;SDS011;44432;49.786;22.760;2022-11-21T08:29:26;16.70;;;9.00;;
58661;SDS011;44432;49.786;22.760;2022-11-21T08:31:57;13.70;;;7.90;;
58661;SDS011;44432;49.786;22.760;2022-11-21T08:34:29;17.90;;;9.90;;
58661;SDS011;44432;49.786;22.760;2022-11-21T08:37:00;14.40;;;8.60;;
58661;SDS011;44432;49.786;22.760;2022-11-21T08:39:30;17.30;;;10.80;;
58661;SDS011;44432;49.786;22.760;2022-11-21T08:42:01;20.10;;;11.50;;
58661;SDS011;44432;49.786;22.760;2022-11-21T08:44:32;16.70;;;8.30;;
58661;SDS011;44432;49.786;22.760;2022-11-21T08:47:03;15.80;;;9.00;;
58661;SDS011;44432;49.786;22.760;2022-11-21T08:49:34;26.30;;;14.10;;
58661;SDS011;44432;49.786;22.760;2022-11-21T08:52:05;22.60;;;10.60;;
58661;SDS011;44432;49.786;22.760;2022-11-21T08:54:35;20.30;;;11.00;;
58661;SDS011;44432;49.786;22.760;2022-11-21T08:57:06;17.30;;;10.70;;
58661;SDS011;44432;49.786;22.760;2022-11-21T08:59:36;17.70;;;8.00;;
58661;SDS011;44432;49.786;22.760;2022-11-21T09:02:08;14.20;;;8.40;;
58661;SDS011;44432;49.786;22.760;2022-11-21T09:04:39;15.60;;;9.30;;
58661;SDS011;44432;49.786;22.760;2022-11-21T09:07:10;20.40;;;9.20;;
58661;SDS011;44432;49.786;22.760;2022-11-21T09:09:40;12.30;;;8.10;;
58661;SDS011;44432;49.786;22.760;2022-11-21T09:12:11;13.50;;;8.20;;
58661;SDS011;44432;49.786;22.760;2022-11-21T09:14:41;13.10;;;7.70;;
58661;SDS011;44432;49.786;22.760;2022-11-21T09:17:30;15.20;;;10.00;;
58661;SDS011;44432;49.786;22.760;2022-11-21T09:20:18;15.00;;;10.20;;
58661;SDS011;44432;49.786;22.760;2022-11-21T09:22:49;20.50;;;11.20;;
58661;SDS011;44432;49.786;22.760;2022-11-21T09:25:19;26.90;;;15.90;;
58661;SDS011;44432;49.786;22.760;2022-11-21T09:27:50;25.80;;;16.50;;
58661;SDS011;44432;49.786;22.760;2022-11-21T09:30:20;19.60;;;12.40;;
58661;SDS011;44432;49.786;22.760;2022-11-21T09:32:51;18.70;;;11.60;;
58661;SDS011;44432;49.786;22.760;2022-11-21T09:35:22;16.90;;;11.00;;
58661;SDS011;44432;49.786;22.760;2022-11-21T09:37:52;19.50;;;11.30;;
58661;SDS011;44432;49.786;22.760;2022-11-21T09:40:23;22.20;;;13.00;;
58661;SDS011;44432;49.786;22.760;2022-11-21T09:42:59;32.80;;;18.80;;
58661;SDS011;44432;49.786;22.760;2022-11-21T09:45:43;27.00;;;16.60;;
58661;SDS011;44432;49.786;22.760;2022-11-21T09:48:16;18.80;;;12.40;;
58661;SDS011;44432;49.786;22.760;2022-11-21T09:50:53;14.40;;;9.80;;
58661;SDS011;44432;49.786;22.760;2022-11-21T09:55:57;13.60;;;9.10;;
58661;SDS011;44432;49.786;22.760;2022-11-21T09:58:34;16.60;;;8.70;;
58661;SDS011;44432;49.786;22.760;2022-11-21T10:01:10;16.20;;;9.70;;
58661;SDS011;44432;49.786;22.760;2022-11-21T10:03:42;16.10;;;11.20;;
58661;SDS011;44432;49.786;22.760;2022-11-21T10:06:16;13.90;;;9.20;;
58661;SDS011;44432;49.786;22.760;2022-11-21T10:08:52;13.10;;;8.40;;
58661;SDS011;44432;49.786;22.760;2022-11-21T10:11:32;14.00;;;9.30;;
58661;SDS011;44432;49.786;22.760;2022-11-21T10:14:26;16.60;;;10.00;;
58661;SDS011;44432;49.786;22.760;2022-11-21T10:17:12;15.50;;;10.60;;
58661;SDS011;44432;49.786;22.760;2022-11-21T10:19:53;16.30;;;11.40;;
58661;SDS011;44432;49.786;22.760;2022-11-21T10:22:39;18.90;;;11.90;;
58661;SDS011;44432;49.786;22.760;2022-11-21T10:25:23;18.90;;;12.90;;
58661;SDS011;44432;49.786;22.760;2022-11-21T10:27:58;21.30;;;12.40;;
58661;SDS011;44432;49.786;22.760;2022-11-21T10:30:32;26.20;;;14.30;;
58661;SDS011;44432;49.786;22.760;2022-11-21T10:33:10;22.20;;;11.10;;
58661;SDS011;44432;49.786;22.760;2022-11-21T10:35:46;13.20;;;8.70;;
58661;SDS011;44432;49.786;22.760;2022-11-21T10:38:22;13.70;;;8.80;;
58661;SDS011;44432;49.786;22.760;2022-11-21T10:40:54;23.60;;;10.40;;
58661;SDS011;44432;49.786;22.760;2022-11-21T10:43:32;21.80;;;9.60;;
58661;SDS011;44432;49.786;22.760;2022-11-21T10:46:26;16.70;;;9.10;;
58661;SDS011;44432;49.786;22.760;2022-11-21T10:48:57;18.30;;;10.70;;
58661;SDS011;44432;49.786;22.760;2022-11-21T10:51:34;19.10;;;10.20;;
58661;SDS011;44432;49.786;22.760;2022-11-21T10:54:11;17.20;;;9.80;;
58661;SDS011;44432;49.786;22.760;2022-11-21T10:57:04;15.10;;;10.00;;
58661;SDS011;44432;49.786;22.760;2022-11-21T10:59:40;14.90;;;9.50;;
58661;SDS011;44432;49.786;22.760;2022-11-21T11:02:27;12.70;;;9.00;;
58661;SDS011;44432;49.786;22.760;2022-11-21T11:08:02;30.70;;;17.20;;
58661;SDS011;44432;49.786;22.760;2022-11-21T11:10:37;23.00;;;15.30;;
58661;SDS011;44432;49.786;22.760;2022-11-21T11:13:12;20.40;;;12.70;;
58661;SDS011;44432;49.786;22.760;2022-11-21T11:16:05;24.70;;;14.90;;
58661;SDS011;44432;49.786;22.760;2022-11-21T11:18:46;26.20;;;14.60;;
58661;SDS011;44432;49.786;22.760;2022-11-21T11:21:22;24.20;;;14.90;;
58661;SDS011;44432;49.786;22.760;2022-11-21T11:24:04;25.10;;;16.70;;
58661;SDS011;44432;49.786;22.760;2022-11-21T11:26:52;24.40;;;13.90;;
58661;SDS011;44432;49.786;22.760;2022-11-21T11:29:27;25.30;;;15.10;;
58661;SDS011;44432;49.786;22.760;2022-11-21T11:32:00;22.00;;;13.30;;
58661;SDS011;44432;49.786;22.760;2022-11-21T11:34:38;18.10;;;11.40;;
58661;SDS011;44432;49.786;22.760;2022-11-21T11:37:17;16.70;;;10.60;;
58661;SDS011;44432;49.786;22.760;2022-11-21T11:39:54;17.90;;;11.60;;
58661;SDS011;44432;49.786;22.760;2022-11-21T11:42:38;19.50;;;10.50;;
58661;SDS011;44432;49.786;22.760;2022-11-21T11:45:50;16.50;;;10.30;;
58661;SDS011;44432;49.786;22.760;2022-11-21T11:48:51;15.60;;;10.10;;
58661;SDS011;44432;49.786;22.760;2022-11-21T11:51:29;16.30;;;10.70;;
58661;SDS011;44432;49.786;22.760;2022-11-21T11:54:07;16.60;;;10.00;;
58661;SDS011;44432;49.786;22.760;2022-11-21T11:56:44;13.40;;;9.50;;
58661;SDS011;44432;49.786;22.760;2022-11-21T11:59:17;16.00;;;9.90;;
58661;SDS011;44432;49.786;22.760;2022-11-21T12:01:54;15.80;;;10.50;;
58661;SDS011;44432;49.786;22.760;2022-11-21T12:04:31;20.60;;;12.90;;
58661;SDS011;44432;49.786;22.760;2022-11-21T12:07:14;22.10;;;13.40;;
58661;SDS011;44432;49.786;22.760;2022-11-21T12:09:57;24.10;;;14.20;;
58661;SDS011;44432;49.786;22.760;2022-11-21T12:12:34;20.10;;;13.30;;
58661;SDS011;44432;49.786;22.760;2022-11-21T12:15:10;23.60;;;14.40;;
58661;SDS011;44432;49.786;22.760;2022-11-21T12:18:10;19.50;;;12.20;;
58661;SDS011;44432;49.786;22.760;2022-11-21T12:20:50;17.60;;;10.50;;
58661;SDS011;44432;49.786;22.760;2022-11-21T12:23:27;29.20;;;14.30;;
58661;SDS011;44432;49.786;22.760;2022-11-21T12:26:06;21.80;;;14.30;;
58661;SDS011;44432;49.786;22.760;2022-11-21T12:28:50;21.00;;;13.30;;
58661;SDS011;44432;49.786;22.760;2022-11-21T12:31:38;18.30;;;11.90;;
58661;SDS011;44432;49.786;22.760;2022-11-21T12:34:23;21.60;;;12.40;;
58661;SDS011;44432;49.786;22.760;2022-11-21T12:37:13;22.20;;;13.30;;
58661;SDS011;44432;49.786;22.760;2022-11-21T12:39:59;22.40;;;13.40;;
58661;SDS011;44432;49.786;22.760;2022-11-21T12:42:45;25.70;;;15.60;;
58661;SDS011;44432;49.786;22.760;2022-11-21T12:45:29;22.40;;;15.40;;
58661;SDS011;44432;49.786;22.760;2022-11-21T12:48:05;21.70;;;14.30;;
58661;SDS011;44432;49.786;22.760;2022-11-21T12:51:14;24.30;;;15.00;;
58661;SDS011;44432;49.786;22.760;2022-11-21T12:54:19;21.40;;;13.90;;
58661;SDS011;44432;49.786;22.760;2022-11-21T12:57:04;21.30;;;13.30;;
58661;SDS011;44432;49.786;22.760;2022-11-21T13:02:49;22.30;;;15.40;;
58661;SDS011;44432;49.786;22.760;2022-11-21T13:05:51;28.50;;;15.70;;
58661;SDS011;44432;49.786;22.760;2022-11-21T13:08:25;23.30;;;14.20;;
58661;SDS011;44432;49.786;22.760;2022-11-21T13:10:57;26.10;;;15.30;;
58661;SDS011;44432;49.786;22.760;2022-11-21T13:13:57;24.50;;;15.20;;
58661;SDS011;44432;49.786;22.760;2022-11-21T13:16:32;22.90;;;15.60;;
58661;SDS011;44432;49.786;22.760;2022-11-21T13:19:13;28.60;;;19.00;;
58661;SDS011;44432;49.786;22.760;2022-11-21T13:21:48;21.90;;;14.70;;
58661;SDS011;44432;49.786;22.760;2022-11-21T13:27:30;19.00;;;13.10;;
58661;SDS011;44432;49.786;22.760;2022-11-21T13:32:53;23.50;;;14.60;;
58661;SDS011;44432;49.786;22.760;2022-11-21T13:38:30;27.00;;;15.60;;
58661;SDS011;44432;49.786;22.760;2022-11-21T13:44:45;33.00;;;19.60;;
58661;SDS011;44432;49.786;22.760;2022-11-21T13:50:24;29.80;;;17.40;;
58661;SDS011;44432;49.786;22.760;2022-11-21T13:53:13;31.60;;;19.40;;
58661;SDS011;44432;49.786;22.760;2022-11-21T13:55:56;30.60;;;18.90;;
58661;SDS011;44432;49.786;22.760;2022-11-21T13:58:37;28.80;;;19.20;;
58661;SDS011;44432;49.786;22.760;2022-11-21T14:04:28;21.80;;;14.40;;
58661;SDS011;44432;49.786;22.760;2022-11-21T14:07:34;34.80;;;23.00;;
58661;SDS011;44432;49.786;22.760;2022-11-21T14:10:16;26.40;;;16.20;;
58661;SDS011;44432;49.786;22.760;2022-11-21T14:12:58;23.60;;;14.60;;
58661;SDS011;44432;49.786;22.760;2022-11-21T14:15:31;22.20;;;14.30;;
58661;SDS011;44432;49.786;22.760;2022-11-21T14:18:12;29.10;;;19.20;;
58661;SDS011;44432;49.786;22.760;2022-11-21T14:20:51;30.00;;;18.00;;
58661;SDS011;44432;49.786;22.760;2022-11-21T14:23:25;32.50;;;18.50;;
58661;SDS011;44432;49.786;22.760;2022-11-21T14:25:58;29.20;;;18.30;;
58661;SDS011;44432;49.786;22.760;2022-11-21T14:28:31;29.10;;;19.70;;
58661;SDS011;44432;49.786;22.760;2022-11-21T14:31:03;28.10;;;19.60;;
58661;SDS011;44432;49.786;22.760;2022-11-21T14:33:34;31.30;;;19.60;;
58661;SDS011;44432;49.786;22.760;2022-11-21T14:36:07;34.10;;;18.90;;
58661;SDS011;44432;49.786;22.760;2022-11-21T14:38:41;28.30;;;18.10;;
58661;SDS011;44432;49.786;22.760;2022-11-21T14:41:24;34.00;;;20.70;;
58661;SDS011;44432;49.786;22.760;2022-11-21T14:46:31;29.30;;;18.30;;
58661;SDS011;44432;49.786;22.760;2022-11-21T14:49:23;29.60;;;18.00;;
58661;SDS011;44432;49.786;22.760;2022-11-21T14:52:07;26.30;;;17.80;;
58661;SDS011;44432;49.786;22.760;2022-11-21T14:54:47;34.60;;;21.80;;
58661;SDS011;44432;49.786;22.760;2022-11-21T14:57:22;36.50;;;23.00;;
58661;SDS011;44432;49.786;22.760;2022-11-21T14:59:55;33.50;;;21.80;;
58661;SDS011;44432;49.786;22.760;2022-11-21T15:02:27;37.60;;;21.50;;
58661;SDS011;44432;49.786;22.760;2022-11-21T15:05:01;31.70;;;19.90;;
58661;SDS011;44432;49.786;22.760;2022-11-21T15:07:37;30.10;;;19.90;;
58661;SDS011;44432;49.786;22.760;2022-11-21T15:10:12;24.70;;;17.20;;
58661;SDS011;44432;49.786;22.760;2022-11-21T15:12:45;27.50;;;16.40;;
58661;SDS011;44432;49.786;22.760;2022-11-21T15:15:25;23.60;;;16.10;;
58661;SDS011;44432;49.786;22.760;2022-11-21T15:17:59;21.40;;;14.80;;
58661;SDS011;44432;49.786;22.760;2022-11-21T15:20:31;22.10;;;15.70;;
58661;SDS011;44432;49.786;22.760;2022-11-21T15:23:02;22.30;;;16.00;;
58661;SDS011;44432;49.786;22.760;2022-11-21T15:25:44;26.30;;;15.50;;